Time;durP1;ratioP1;P1;durP2;ratioP2;P2;SDS_P1;SDS_P2;PMS_P1;PMS_P2;Temp;Humidity;BMP_temperature;BMP_pressure;BME280_temperature;BME280_humidity;BME280_pressure;Samples;Min_cycle;Max_cycle;Signal;HPM_P1;HPM_P2
2022/03/23 00:01:48;;;;;;;12.43;8.40;;;10.20;35.70;;;;;;5094055;27;20453;-84
2022/03/23 00:04:15;;;;;;;12.53;8.83;;;10.20;35.70;;;;;;5117147;27;20838;-85
2022/03/23 00:06:43;;;;;;;14.97;9.00;;;10.10;35.70;;;;;;5131757;27;20477;-85
2022/03/23 00:09:12;;;;;;;14.13;8.30;;;10.10;35.90;;;;;;5119343;27;20442;-85
2022/03/23 00:11:39;;;;;;;12.50;9.20;;;10.00;35.70;;;;;;5133179;27;20458;-85
2022/03/23 00:14:06;;;;;;;16.30;9.57;;;10.00;35.60;;;;;;5113800;27;20469;-84
2022/03/23 00:16:36;;;;;;;15.70;9.60;;;10.00;35.80;;;;;;5138011;27;20472;-85
2022/03/23 00:19:04;;;;;;;14.70;9.93;;;10.00;36.00;;;;;;5111826;27;20440;-84
2022/03/23 00:21:31;;;;;;;16.33;8.87;;;9.90;36.90;;;;;;5114563;27;20449;-85
2022/03/23 00:23:58;;;;;;;14.27;8.90;;;9.80;37.00;;;;;;5101411;27;20460;-84
2022/03/23 00:26:25;;;;;;;14.90;7.97;;;9.80;37.20;;;;;;5113200;27;21313;-85
2022/03/23 00:28:52;;;;;;;14.07;9.07;;;9.60;37.10;;;;;;5101637;27;20441;-84
2022/03/23 00:31:20;;;;;;;16.13;9.07;;;9.40;37.80;;;;;;5130842;27;20491;-85
2022/03/23 00:33:49;;;;;;;13.87;9.23;;;9.30;38.30;;;;;;5132888;27;20996;-84
2022/03/23 00:36:18;;;;;;;13.97;8.57;;;9.40;38.00;;;;;;5100770;27;21019;-85
2022/03/23 00:38:45;;;;;;;11.57;7.70;;;9.40;37.70;;;;;;5122163;27;20446;-82
2022/03/23 00:41:13;;;;;;;13.33;8.93;;;9.50;37.70;;;;;;5101999;27;21039;-85
2022/03/23 00:43:40;;;;;;;13.93;10.03;;;9.50;37.70;;;;;;5117629;27;20458;-85
2022/03/23 00:46:07;;;;;;;13.23;8.50;;;9.40;37.60;;;;;;5112186;27;20847;-85
2022/03/23 00:48:34;;;;;;;12.80;8.80;;;9.40;37.80;;;;;;5116645;27;20450;-85
2022/03/23 00:51:02;;;;;;;14.17;8.67;;;9.40;37.90;;;;;;5114839;27;20461;-84
2022/03/23 00:53:29;;;;;;;21.03;10.17;;;9.40;38.00;;;;;;5116008;27;20457;-84
2022/03/23 00:55:56;;;;;;;18.87;8.83;;;9.30;37.80;;;;;;5094511;27;20448;-85
2022/03/23 00:58:24;;;;;;;12.30;8.00;;;9.30;37.80;;;;;;5133624;27;20445;-85
2022/03/23 01:00:50;;;;;;;17.20;10.07;;;9.30;38.00;;;;;;5113539;27;20433;-85
2022/03/23 01:03:18;;;;;;;16.73;9.83;;;9.30;38.10;;;;;;5133340;27;20461;-85
2022/03/23 01:05:45;;;;;;;13.50;8.50;;;9.20;38.20;;;;;;5112750;27;20505;-82
2022/03/23 01:08:13;;;;;;;12.50;7.50;;;9.20;38.50;;;;;;5113776;27;20488;-85
2022/03/23 01:10:40;;;;;;;13.77;8.60;;;9.10;38.50;;;;;;5095410;27;21187;-84
2022/03/23 01:13:08;;;;;;;16.80;8.87;;;9.10;38.70;;;;;;5112605;27;20460;-85
2022/03/23 01:15:35;;;;;;;13.80;9.27;;;9.00;38.80;;;;;;5093771;27;20964;-85
2022/03/23 01:18:05;;;;;;;17.17;9.30;;;8.90;38.90;;;;;;5112593;27;20470;-84
2022/03/23 01:20:32;;;;;;;15.93;9.50;;;8.90;39.10;;;;;;5100099;27;21060;-85
2022/03/23 01:22:59;;;;;;;16.33;9.40;;;8.80;40.00;;;;;;5096474;27;20464;-85
2022/03/23 01:25:27;;;;;;;20.97;10.07;;;8.80;39.20;;;;;;5123072;27;20480;-85
2022/03/23 01:27:56;;;;;;;16.17;8.03;;;8.80;39.10;;;;;;5113547;27;20461;-85
2022/03/23 01:30:24;;;;;;;15.27;9.60;;;8.80;39.00;;;;;;5097136;27;21022;-84
2022/03/23 01:32:51;;;;;;;16.97;9.47;;;8.80;38.80;;;;;;5085588;27;20446;-85
2022/03/23 01:35:18;;;;;;;15.53;8.83;;;8.80;38.80;;;;;;5132842;27;20440;-85
2022/03/23 01:37:47;;;;;;;12.87;8.47;;;8.70;38.80;;;;;;5104394;27;20506;-84
2022/03/23 01:40:16;;;;;;;11.30;7.50;;;8.70;38.90;;;;;;5131941;27;20438;-84
2022/03/23 01:42:44;;;;;;;16.07;8.93;;;8.60;38.70;;;;;;5114065;27;21010;-85
2022/03/23 01:45:12;;;;;;;15.70;8.37;;;8.60;38.90;;;;;;5120989;27;20458;-84
2022/03/23 01:47:40;;;;;;;12.47;7.93;;;8.50;39.20;;;;;;5097371;27;20563;-85
2022/03/23 01:50:08;;;;;;;17.83;8.10;;;8.50;39.30;;;;;;5119351;27;20457;-84
2022/03/23 01:52:35;;;;;;;12.00;7.80;;;8.50;39.20;;;;;;5094064;27;20813;-84
2022/03/23 01:55:06;;;;;;;13.10;9.07;;;8.40;39.20;;;;;;5112333;27;20444;-85
2022/03/23 01:57:35;;;;;;;13.00;8.50;;;8.20;39.00;;;;;;5130078;27;21168;-84
2022/03/23 02:00:05;;;;;;;14.87;7.50;;;8.10;39.10;;;;;;5129444;27;20456;-84
2022/03/23 02:02:41;;;;;;;11.83;8.03;;;8.00;39.70;;;;;;5115299;27;20713;-84
2022/03/23 02:05:11;;;;;;;15.10;7.57;;;8.00;40.00;;;;;;5087737;27;21123;-83
2022/03/23 02:07:39;;;;;;;14.50;8.30;;;8.00;39.90;;;;;;5130636;27;21050;-85
2022/03/23 02:10:07;;;;;;;12.93;7.90;;;8.00;40.10;;;;;;5098191;27;21208;-85
2022/03/23 02:12:57;;;;;;;9.50;6.80;;;8.10;40.00;;;;;;5116251;27;20448;-84
2022/03/23 02:15:28;;;;;;;10.60;7.60;;;8.20;39.80;;;;;;5113059;27;20452;-85
2022/03/23 02:17:56;;;;;;;11.33;7.67;;;8.20;39.70;;;;;;5130689;27;20493;-85
2022/03/23 02:20:25;;;;;;;15.67;8.90;;;8.20;39.60;;;;;;5112983;27;20450;-85
2022/03/23 02:22:53;;;;;;;11.70;7.43;;;8.20;39.60;;;;;;5095190;27;20474;-86
2022/03/23 02:25:27;;;;;;;13.87;7.70;;;8.20;39.50;;;;;;5113683;27;21612;-84
2022/03/23 02:27:55;;;;;;;18.07;7.93;;;8.10;39.60;;;;;;5109275;27;20497;-85
2022/03/23 02:30:23;;;;;;;13.17;8.07;;;8.10;39.50;;;;;;5123290;27;20441;-84
2022/03/23 02:32:50;;;;;;;15.07;7.77;;;8.10;40.10;;;;;;5129274;27;20814;-84
2022/03/23 02:35:17;;;;;;;15.73;7.40;;;8.00;40.20;;;;;;5095785;27;20450;-84
2022/03/23 02:37:44;;;;;;;12.40;6.93;;;8.00;40.20;;;;;;5121198;27;21231;-85
2022/03/23 02:40:13;;;;;;;11.40;7.67;;;7.90;40.30;;;;;;5132583;27;20452;-85
2022/03/23 02:42:41;;;;;;;12.00;7.90;;;7.80;40.60;;;;;;5132532;27;20865;-85
2022/03/23 02:45:10;;;;;;;14.40;9.10;;;7.70;40.60;;;;;;5127110;27;20462;-85
2022/03/23 02:47:37;;;;;;;12.80;8.63;;;7.70;40.50;;;;;;5104492;27;20824;-85
2022/03/23 02:50:05;;;;;;;13.57;7.83;;;7.70;40.70;;;;;;5110803;27;20450;-84
2022/03/23 02:52:32;;;;;;;14.33;7.90;;;7.70;40.60;;;;;;5096275;27;20465;-85
2022/03/23 03:03:49;;;;;;;13.27;8.27;;;7.70;40.70;;;;;;5133029;27;20467;-85
2022/03/23 03:06:16;;;;;;;9.60;6.90;;;7.70;40.70;;;;;;5116073;27;20876;-84
2022/03/23 03:08:47;;;;;;;13.60;8.40;;;7.50;40.90;;;;;;5135800;27;20526;-85
2022/03/23 03:11:15;;;;;;;15.43;8.03;;;7.40;41.30;;;;;;5115369;27;20556;-85
2022/03/23 03:13:45;;;;;;;14.00;9.07;;;7.50;41.30;;;;;;5134086;27;20450;-85
2022/03/23 03:16:12;;;;;;;12.63;8.00;;;7.40;41.30;;;;;;5135581;27;20500;-85
2022/03/23 03:18:39;;;;;;;17.03;7.50;;;7.50;41.30;;;;;;5104577;27;20520;-84
2022/03/23 03:21:07;;;;;;;14.13;8.17;;;7.50;41.40;;;;;;5115241;27;20454;-85
2022/03/23 03:23:34;;;;;;;15.30;8.37;;;7.30;41.80;;;;;;5117653;27;20457;-85
2022/03/23 03:26:05;;;;;;;19.40;7.97;;;7.20;42.10;;;;;;5133283;27;20565;-86
2022/03/23 03:28:33;;;;;;;10.20;7.80;;;7.30;41.80;;;;;;5102605;27;20505;-86
2022/03/23 03:31:02;;;;;;;13.70;9.77;;;7.30;41.60;;;;;;5131207;27;20492;-85
2022/03/23 03:33:29;;;;;;;13.10;8.47;;;7.40;41.40;;;;;;5116158;27;20445;-85
2022/03/23 03:35:57;;;;;;;18.10;8.50;;;7.40;41.30;;;;;;5107324;27;20438;-85
2022/03/23 03:38:24;;;;;;;15.73;8.43;;;7.30;41.10;;;;;;5091278;27;21047;-86
2022/03/23 03:40:51;;;;;;;13.10;8.50;;;7.30;40.90;;;;;;5131889;27;20480;-86
2022/03/23 03:43:18;;;;;;;13.70;8.73;;;7.20;41.10;;;;;;5090924;27;20452;-86
2022/03/23 03:45:46;;;;;;;21.73;8.13;;;6.60;42.40;;;;;;5124065;27;20478;-83
2022/03/23 03:48:14;;;;;;;13.60;8.03;;;6.40;43.20;;;;;;5102324;27;20464;-84
2022/03/23 03:50:42;;;;;;;11.70;8.03;;;6.50;43.30;;;;;;5108372;27;21073;-85
2022/03/23 03:53:09;;;;;;;16.90;8.47;;;6.60;42.70;;;;;;5097121;27;20443;-85
2022/03/23 03:55:36;;;;;;;13.93;9.10;;;6.70;42.40;;;;;;5114535;27;20898;-85
2022/03/23 03:58:03;;;;;;;12.60;8.23;;;6.80;42.10;;;;;;5098358;27;21060;-86
2022/03/23 04:00:31;;;;;;;11.23;7.10;;;6.90;42.00;;;;;;5134350;27;20477;-85
2022/03/23 04:02:58;;;;;;;16.97;7.70;;;7.00;41.80;;;;;;5111600;27;21178;-85
2022/03/23 04:05:28;;;;;;;20.00;7.50;;;7.00;41.50;;;;;;5098378;27;20813;-86
2022/03/23 04:07:56;;;;;;;9.50;7.70;;;7.00;41.40;;;;;;5110857;27;20568;-85
2022/03/23 04:10:23;;;;;;;18.30;9.00;;;7.00;41.30;;;;;;5089063;27;20452;-85
2022/03/23 04:12:50;;;;;;;15.30;8.73;;;7.00;41.60;;;;;;5101642;27;21011;-85
2022/03/23 04:15:19;;;;;;;16.80;9.40;;;6.90;41.70;;;;;;5113974;27;20442;-86
2022/03/23 04:17:46;;;;;;;16.00;8.13;;;6.90;41.70;;;;;;5100371;27;20472;-86
2022/03/23 04:20:14;;;;;;;17.50;9.13;;;6.80;41.70;;;;;;5134776;27;20853;-85
2022/03/23 04:22:42;;;;;;;17.00;10.00;;;6.90;41.90;;;;;;5115078;27;20442;-85
2022/03/23 04:25:11;;;;;;;14.90;8.10;;;6.80;42.10;;;;;;5122834;27;20468;-85
2022/03/23 04:27:45;;;;;;;14.80;8.80;;;6.80;42.10;;;;;;5116844;27;20484;-85
2022/03/23 04:30:14;;;;;;;14.53;8.30;;;6.80;42.30;;;;;;5112803;27;20442;-82
2022/03/23 04:32:42;;;;;;;16.80;8.23;;;6.80;42.70;;;;;;5129834;27;20477;-85
2022/03/23 04:35:09;;;;;;;16.70;9.03;;;6.80;42.90;;;;;;5112644;27;20445;-85
2022/03/23 04:37:36;;;;;;;36.33;20.97;;;6.70;42.90;;;;;;5124598;27;20485;-84
2022/03/23 04:40:07;;;;;;;34.97;16.20;;;6.70;42.80;;;;;;5132766;27;20796;-85
2022/03/23 04:42:34;;;;;;;25.60;13.93;;;6.70;42.80;;;;;;5115908;27;20928;-85
2022/03/23 04:45:02;;;;;;;24.23;13.70;;;6.70;42.30;;;;;;5098959;27;20461;-84
2022/03/23 04:47:29;;;;;;;15.67;8.73;;;6.70;42.20;;;;;;5119331;27;20470;-84
2022/03/23 04:49:55;;;;;;;22.70;10.10;;;6.60;42.10;;;;;;5132279;27;20453;-86
2022/03/23 04:52:23;;;;;;;14.03;8.50;;;6.60;42.30;;;;;;5099878;27;20817;-83
2022/03/23 04:54:50;;;;;;;9.70;7.40;;;6.50;42.00;;;;;;5114322;27;20494;-86
2022/03/23 04:57:19;;;;;;;62.80;35.90;;;6.20;42.60;;;;;;5117587;27;20458;-86
2022/03/23 04:59:46;;;;;;;58.03;28.10;;;6.30;42.90;;;;;;5084296;27;20442;-85
2022/03/23 05:02:13;;;;;;;32.00;17.50;;;6.30;42.70;;;;;;5102733;27;20984;-86
2022/03/23 05:04:40;;;;;;;18.87;11.77;;;6.30;42.40;;;;;;5097609;27;20437;-86
2022/03/23 05:07:07;;;;;;;14.27;8.23;;;6.40;42.00;;;;;;5111191;27;20466;-85
2022/03/23 05:09:34;;;;;;;17.20;8.90;;;6.30;42.60;;;;;;5106438;27;20453;-85
2022/03/23 05:12:01;;;;;;;15.33;9.30;;;6.20;42.80;;;;;;5112675;27;21254;-85
2022/03/23 05:14:29;;;;;;;18.50;9.90;;;6.30;42.60;;;;;;5122548;27;20499;-86
2022/03/23 05:16:56;;;;;;;19.53;11.67;;;6.30;42.60;;;;;;5129202;27;20464;-85
2022/03/23 05:19:22;;;;;;;27.57;17.47;;;6.20;42.50;;;;;;5113935;27;20499;-86
2022/03/23 05:21:50;;;;;;;36.73;22.70;;;6.30;42.50;;;;;;5130982;27;20445;-86
2022/03/23 05:24:17;;;;;;;30.87;17.33;;;6.30;42.40;;;;;;5116113;27;20963;-85
2022/03/23 05:26:44;;;;;;;25.83;15.40;;;6.30;42.50;;;;;;5132818;27;20549;-86
2022/03/23 05:29:11;;;;;;;16.37;11.10;;;6.30;42.80;;;;;;5131055;27;20446;-85
2022/03/23 05:31:39;;;;;;;13.90;9.23;;;6.30;43.00;;;;;;5110842;27;20442;-86
2022/03/23 05:34:06;;;;;;;14.57;8.23;;;6.30;43.20;;;;;;5121270;27;20442;-85
2022/03/23 05:36:33;;;;;;;15.80;8.43;;;6.30;43.30;;;;;;5132568;27;20506;-86
2022/03/23 05:39:00;;;;;;;16.27;8.90;;;6.40;43.30;;;;;;5102744;27;20441;-85
2022/03/23 05:41:27;;;;;;;16.30;9.80;;;6.40;43.40;;;;;;5114516;27;20502;-84
2022/03/23 05:43:54;;;;;;;14.40;9.17;;;6.40;44.10;;;;;;5111682;27;21224;-86
2022/03/23 05:46:21;;;;;;;15.10;9.80;;;6.40;43.30;;;;;;5129112;27;20560;-86
2022/03/23 05:48:50;;;;;;;14.80;8.77;;;6.30;43.30;;;;;;5130275;27;20442;-85
2022/03/23 05:51:17;;;;;;;17.40;11.00;;;6.10;44.40;;;;;;5130741;27;20453;-86
2022/03/23 05:53:43;;;;;;;17.83;10.20;;;6.10;44.10;;;;;;5115998;27;20943;-85
2022/03/23 05:56:11;;;;;;;13.40;8.70;;;6.10;44.10;;;;;;5120985;27;20457;-86
2022/03/23 05:58:37;;;;;;;16.40;9.80;;;6.10;44.00;;;;;;5112502;27;20456;-85
2022/03/23 06:01:05;;;;;;;13.97;8.90;;;6.20;44.00;;;;;;5115548;27;20453;-85
2022/03/23 06:03:32;;;;;;;15.23;9.40;;;6.30;43.90;;;;;;5110986;27;20516;-86
2022/03/23 06:06:00;;;;;;;14.57;8.70;;;6.30;44.00;;;;;;5127669;27;20511;-85
2022/03/23 06:08:27;;;;;;;13.77;9.17;;;6.30;44.20;;;;;;5135778;27;21018;-85
2022/03/23 06:10:54;;;;;;;16.40;8.00;;;6.30;44.20;;;;;;5127442;27;20550;-86
2022/03/23 06:13:21;;;;;;;17.77;10.20;;;6.30;43.90;;;;;;5132261;27;20494;-85
2022/03/23 06:15:49;;;;;;;15.87;10.10;;;6.30;43.50;;;;;;5111347;27;20450;-85
2022/03/23 06:18:16;;;;;;;16.13;10.03;;;6.40;43.60;;;;;;5131817;27;20537;-85
2022/03/23 06:20:43;;;;;;;17.30;9.57;;;6.40;44.10;;;;;;5091408;27;20791;-85
2022/03/23 06:23:13;;;;;;;43.37;28.57;;;6.40;43.30;;;;;;5080720;27;20515;-85
2022/03/23 06:25:40;;;;;;;20.97;11.40;;;6.40;43.70;;;;;;5112806;27;21093;-86
2022/03/23 06:28:07;;;;;;;12.27;9.33;;;6.50;44.10;;;;;;5109722;27;20476;-85
2022/03/23 06:30:34;;;;;;;14.27;9.77;;;6.50;44.80;;;;;;5114126;27;21066;-85
2022/03/23 06:33:01;;;;;;;17.60;9.50;;;6.50;44.80;;;;;;5125370;27;21286;-86
2022/03/23 06:35:29;;;;;;;19.83;9.67;;;6.50;44.50;;;;;;5132512;27;20937;-85
2022/03/23 06:37:56;;;;;;;17.07;10.73;;;6.50;44.40;;;;;;5131262;27;20488;-85
2022/03/23 06:40:24;;;;;;;28.83;12.53;;;6.60;44.50;;;;;;5113981;27;21151;-85
2022/03/23 06:42:52;;;;;;;38.97;17.90;;;6.50;44.40;;;;;;5120036;27;20433;-85
2022/03/23 06:45:19;;;;;;;54.00;25.00;;;6.50;44.40;;;;;;5109134;27;21015;-86
2022/03/23 06:47:46;;;;;;;61.93;22.40;;;6.50;44.30;;;;;;5103579;27;20520;-83
2022/03/23 06:50:13;;;;;;;42.60;19.60;;;6.50;44.30;;;;;;5097322;27;21003;-85
2022/03/23 06:52:40;;;;;;;32.87;15.40;;;6.50;44.50;;;;;;5097241;27;20464;-85
2022/03/23 06:55:08;;;;;;;22.67;13.27;;;6.50;44.50;;;;;;5109391;27;20497;-86
2022/03/23 06:57:37;;;;;;;24.77;12.17;;;6.50;44.40;;;;;;5108779;27;20844;-85
2022/03/23 07:00:12;;;;;;;19.33;11.87;;;6.60;44.40;;;;;;5095744;27;20472;-85
2022/03/23 07:02:40;;;;;;;24.03;12.70;;;6.60;44.30;;;;;;5119850;27;20472;-85
2022/03/23 07:05:08;;;;;;;19.50;13.40;;;6.60;44.40;;;;;;5128862;27;20711;-85
2022/03/23 07:07:36;;;;;;;28.27;13.90;;;6.70;44.30;;;;;;5109020;28;20586;-85
2022/03/23 07:10:02;;;;;;;25.53;12.63;;;6.70;44.20;;;;;;5131870;27;21154;-86
2022/03/23 07:12:29;;;;;;;21.70;11.73;;;6.70;44.30;;;;;;5115662;27;20444;-85
2022/03/23 07:14:58;;;;;;;17.93;11.67;;;6.70;44.50;;;;;;5095441;27;20453;-85
2022/03/23 07:17:25;;;;;;;25.87;11.57;;;6.70;44.60;;;;;;5099182;27;20476;-87
2022/03/23 07:19:52;;;;;;;17.77;10.30;;;6.80;44.80;;;;;;5112023;27;20450;-85
2022/03/23 07:22:19;;;;;;;20.20;11.77;;;6.80;44.70;;;;;;5131623;27;20441;-85
2022/03/23 07:24:46;;;;;;;20.43;10.30;;;6.80;44.80;;;;;;5111493;27;20541;-85
2022/03/23 07:27:13;;;;;;;16.60;11.23;;;6.90;44.80;;;;;;5131689;27;20474;-86
2022/03/23 07:29:40;;;;;;;19.87;11.57;;;6.90;44.70;;;;;;5110907;27;20463;-86
2022/03/23 07:32:09;;;;;;;20.43;11.10;;;6.90;44.80;;;;;;5110843;27;20444;-85
2022/03/23 07:34:36;;;;;;;16.30;9.60;;;6.90;45.50;;;;;;5108143;28;20446;-85
2022/03/23 07:37:04;;;;;;;22.93;10.50;;;6.90;45.60;;;;;;5129266;27;20514;-85
2022/03/23 07:39:30;;;;;;;13.43;9.07;;;6.90;45.80;;;;;;5109705;27;20445;-85
2022/03/23 07:41:59;;;;;;;19.80;10.27;;;7.00;45.60;;;;;;5129473;27;20438;-85
2022/03/23 07:44:26;;;;;;;21.50;12.07;;;7.00;45.90;;;;;;5135136;27;20794;-86
2022/03/23 07:46:53;;;;;;;28.90;11.20;;;7.00;45.80;;;;;;5130820;27;20473;-85
2022/03/23 07:49:21;;;;;;;18.07;10.33;;;7.10;46.00;;;;;;5100263;27;20458;-85
2022/03/23 07:51:48;;;;;;;15.87;9.47;;;7.10;45.80;;;;;;5121294;27;20687;-85
2022/03/23 07:54:15;;;;;;;16.70;10.10;;;7.10;45.60;;;;;;5113940;27;20453;-85
2022/03/23 07:56:42;;;;;;;19.07;10.03;;;7.20;45.70;;;;;;5131588;27;20460;-84
2022/03/23 07:59:09;;;;;;;22.43;9.00;;;7.20;45.70;;;;;;5133800;27;20478;-85
2022/03/23 08:01:36;;;;;;;18.47;10.47;;;7.30;45.60;;;;;;5129344;27;20453;-85
2022/03/23 08:04:04;;;;;;;19.50;11.10;;;7.30;45.80;;;;;;5122764;27;20534;-85
2022/03/23 08:06:35;;;;;;;18.57;11.10;;;7.40;45.80;;;;;;5099690;27;20464;-85
2022/03/23 08:09:02;;;;;;;23.17;10.70;;;7.50;45.60;;;;;;5113668;27;20956;-85
2022/03/23 08:11:29;;;;;;;18.60;11.17;;;7.50;45.50;;;;;;5135264;27;20450;-84
2022/03/23 08:13:56;;;;;;;17.17;10.90;;;7.60;45.60;;;;;;5095250;27;20450;-84
2022/03/23 08:16:23;;;;;;;16.10;10.37;;;7.60;45.30;;;;;;5134756;27;20469;-85
2022/03/23 08:18:52;;;;;;;20.23;9.97;;;7.60;45.30;;;;;;5115659;27;20446;-83
2022/03/23 08:21:20;;;;;;;21.13;10.63;;;7.60;45.40;;;;;;5124898;27;20827;-85
2022/03/23 08:23:48;;;;;;;19.27;11.20;;;7.70;45.50;;;;;;5100013;27;20468;-85
2022/03/23 08:26:16;;;;;;;19.73;10.67;;;7.80;45.50;;;;;;5115027;27;20560;-85
2022/03/23 08:28:44;;;;;;;19.83;11.87;;;7.90;45.20;;;;;;5115332;27;20460;-86
2022/03/23 08:31:11;;;;;;;21.17;11.00;;;8.10;45.10;;;;;;5131892;27;20933;-85
2022/03/23 08:33:39;;;;;;;15.63;10.97;;;8.20;45.30;;;;;;5103745;27;20526;-85
2022/03/23 08:36:07;;;;;;;21.60;10.60;;;8.30;45.40;;;;;;5112918;27;21010;-83
2022/03/23 08:38:35;;;;;;;19.23;9.97;;;8.40;45.00;;;;;;5116548;27;20448;-85
2022/03/23 08:41:03;;;;;;;13.70;9.27;;;8.60;44.80;;;;;;5113509;27;20506;-85
2022/03/23 08:43:30;;;;;;;11.90;8.77;;;8.70;44.30;;;;;;5132907;27;20540;-85
2022/03/23 08:45:59;;;;;;;15.33;9.23;;;8.50;43.80;;;;;;5131118;27;20542;-85
2022/03/23 08:48:26;;;;;;;15.87;8.50;;;8.60;43.70;;;;;;5100990;27;20507;-84
2022/03/23 08:50:53;;;;;;;16.13;8.17;;;8.80;44.00;;;;;;5132224;27;20445;-86
2022/03/23 08:53:21;;;;;;;11.47;7.97;;;9.00;43.90;;;;;;5115974;27;20457;-85
2022/03/23 08:55:48;;;;;;;14.40;8.63;;;9.20;43.60;;;;;;5117616;27;20434;-85
2022/03/23 08:58:16;;;;;;;13.77;8.63;;;9.40;43.00;;;;;;5131974;27;20458;-85
2022/03/23 09:00:43;;;;;;;13.60;8.50;;;9.60;42.90;;;;;;5132686;27;20476;-85
2022/03/23 09:03:10;;;;;;;14.80;9.07;;;9.70;42.30;;;;;;5115162;27;20532;-85
2022/03/23 09:05:37;;;;;;;19.23;10.40;;;9.80;42.70;;;;;;5113024;27;20442;-85
2022/03/23 09:08:04;;;;;;;15.20;9.30;;;9.80;42.60;;;;;;5131224;27;21006;-85
2022/03/23 09:10:31;;;;;;;12.80;8.87;;;9.90;42.60;;;;;;5131189;27;20445;-85
2022/03/23 09:12:58;;;;;;;13.33;8.30;;;10.10;41.40;;;;;;5129365;27;20445;-85
2022/03/23 09:15:26;;;;;;;17.57;9.70;;;10.20;41.50;;;;;;5112818;27;20441;-85
2022/03/23 09:17:59;;;;;;;13.33;9.10;;;10.40;41.50;;;;;;5097829;27;20469;-85
2022/03/23 09:20:28;;;;;;;14.57;9.67;;;10.60;41.70;;;;;;5131429;27;20861;-85
2022/03/23 09:22:55;;;;;;;12.27;9.00;;;10.80;41.00;;;;;;5113252;27;20475;-83
2022/03/23 09:25:23;;;;;;;14.17;9.60;;;11.00;40.90;;;;;;5111348;27;20441;-85
2022/03/23 09:27:51;;;;;;;14.97;8.97;;;11.20;41.60;;;;;;5114619;27;20470;-86
2022/03/23 09:30:19;;;;;;;14.33;9.67;;;11.40;40.00;;;;;;5113056;27;21161;-84
2022/03/23 09:32:48;;;;;;;14.60;8.90;;;11.50;39.60;;;;;;5113809;27;20714;-85
2022/03/23 09:35:16;;;;;;;14.33;8.87;;;11.70;39.20;;;;;;5104750;27;20446;-86
2022/03/23 09:37:48;;;;;;;29.23;9.40;;;11.80;38.70;;;;;;5114247;27;20472;-85
2022/03/23 09:40:18;;;;;;;13.87;8.07;;;12.00;38.30;;;;;;5117993;27;20448;-85
2022/03/23 09:42:46;;;;;;;28.43;8.60;;;12.20;37.40;;;;;;5131023;27;20446;-82
2022/03/23 09:45:20;;;;;;;17.83;9.40;;;12.40;36.60;;;;;;5098561;27;20446;-84
2022/03/23 09:47:49;;;;;;;12.83;8.43;;;12.50;35.30;;;;;;5096251;27;20495;-84
2022/03/23 09:50:16;;;;;;;17.60;8.37;;;12.70;34.70;;;;;;5113199;27;20968;-86
2022/03/23 09:52:43;;;;;;;11.20;8.60;;;12.90;34.30;;;;;;5114813;27;20496;-86
2022/03/23 09:55:10;;;;;;;9.43;7.50;;;13.20;34.50;;;;;;5098225;27;20461;-86
2022/03/23 09:57:38;;;;;;;15.03;9.47;;;13.30;33.90;;;;;;5129441;27;21074;-85
2022/03/23 10:00:08;;;;;;;21.97;12.80;;;13.60;34.40;;;;;;5105065;27;20527;-86
2022/03/23 10:03:22;;;;;;;17.80;9.23;;;14.00;35.10;;;;;;5097306;27;20456;-86
2022/03/23 10:06:44;;;;;;;15.13;9.10;;;14.40;35.20;;;;;;5111562;27;20446;-83
2022/03/23 10:09:26;;;;;;;20.50;9.47;;;14.60;33.70;;;;;;5121740;27;20462;-86
2022/03/23 10:12:33;;;;;;;20.17;9.13;;;14.80;34.50;;;;;;5109782;27;20441;-86
2022/03/23 10:15:43;;;;;;;18.43;10.07;;;15.10;34.20;;;;;;5121154;27;20445;-85
2022/03/23 10:18:40;;;;;;;13.27;8.30;;;15.40;33.90;;;;;;5132909;27;20973;-86
2022/03/23 10:21:07;;;;;;;17.10;8.87;;;15.50;32.60;;;;;;5113518;27;20477;-86
2022/03/23 10:23:36;;;;;;;20.63;10.53;;;15.90;32.70;;;;;;5098557;27;20441;-85
2022/03/23 10:26:12;;;;;;;15.13;10.37;;;16.20;31.70;;;;;;5114933;27;20452;-85
2022/03/23 10:28:39;;;;;;;17.47;9.07;;;16.50;31.00;;;;;;5113533;27;20457;-86
2022/03/23 10:31:16;;;;;;;12.90;8.57;;;16.70;31.40;;;;;;5102521;27;20452;-86
2022/03/23 10:33:44;;;;;;;12.43;8.50;;;16.80;30.40;;;;;;5129476;27;20446;-86
2022/03/23 10:36:12;;;;;;;14.37;9.17;;;17.00;31.00;;;;;;5104034;27;20454;-86
2022/03/23 10:38:41;;;;;;;11.33;8.70;;;17.10;30.70;;;;;;5086975;27;20503;-86
2022/03/23 10:41:12;;;;;;;16.97;9.97;;;17.20;30.60;;;;;;5093767;27;20441;-86
2022/03/23 10:43:41;;;;;;;14.17;9.60;;;17.30;29.60;;;;;;5102506;27;20456;-85
2022/03/23 10:46:09;;;;;;;15.03;9.40;;;17.50;29.80;;;;;;5077944;27;20531;-86
2022/03/23 10:48:36;;;;;;;14.90;10.10;;;17.80;29.40;;;;;;5110856;27;21578;-86
2022/03/23 10:51:04;;;;;;;13.17;9.53;;;18.00;29.00;;;;;;5093777;27;20960;-85
2022/03/23 10:53:33;;;;;;;17.23;10.17;;;18.20;29.00;;;;;;5120957;27;20476;-86
2022/03/23 10:56:03;;;;;;;13.93;9.20;;;18.40;28.60;;;;;;5093673;27;20507;-86
2022/03/23 10:58:30;;;;;;;15.53;9.20;;;18.50;28.30;;;;;;5081109;27;20612;-86
2022/03/23 11:01:00;;;;;;;13.20;9.30;;;18.50;28.20;;;;;;5096692;27;21195;-85
2022/03/23 11:03:42;;;;;;;18.70;9.93;;;18.70;28.00;;;;;;5111610;27;20449;-85
2022/03/23 11:06:11;;;;;;;13.30;9.27;;;18.80;27.10;;;;;;5110041;27;20449;-85
2022/03/23 11:08:38;;;;;;;22.30;10.73;;;19.00;26.70;;;;;;5129580;27;20477;-85
2022/03/23 11:16:43;;;;;;;17.80;10.40;;;19.50;25.30;;;;;;5096631;27;20527;-86
2022/03/23 11:19:18;;;;;;;18.97;10.03;;;19.70;25.50;;;;;;5099094;27;20444;-86
2022/03/23 11:22:05;;;;;;;13.30;9.83;;;19.70;25.20;;;;;;5131999;27;20465;-83
2022/03/23 11:24:36;;;;;;;12.93;9.57;;;20.00;25.40;;;;;;5114449;27;20587;-86
2022/03/23 11:27:05;;;;;;;11.80;9.20;;;20.10;24.60;;;;;;5129907;27;20469;-86
2022/03/23 11:29:33;;;;;;;14.83;9.60;;;20.20;25.30;;;;;;5116873;27;20468;-86
2022/03/23 11:32:04;;;;;;;15.23;9.37;;;20.40;25.70;;;;;;5106081;27;20489;-87
2022/03/23 11:34:34;;;;;;;17.17;10.43;;;20.40;25.80;;;;;;5133965;27;20438;-86
2022/03/23 11:37:03;;;;;;;16.33;10.70;;;20.70;26.70;;;;;;5096288;27;20477;-86
2022/03/23 11:39:31;;;;;;;21.47;11.17;;;20.90;25.40;;;;;;5134715;27;20436;-86
2022/03/23 11:41:59;;;;;;;13.67;10.00;;;21.00;25.20;;;;;;5106916;27;20708;-86
2022/03/23 11:44:28;;;;;;;21.70;9.83;;;21.10;24.50;;;;;;5134814;27;20988;-86
2022/03/23 11:46:59;;;;;;;18.13;9.70;;;21.40;24.60;;;;;;5114611;27;20473;-86
2022/03/23 11:49:32;;;;;;;13.63;9.13;;;21.60;24.80;;;;;;5114328;27;20484;-86
2022/03/23 11:52:10;;;;;;;12.87;9.10;;;21.60;24.20;;;;;;5120005;27;20446;-85
2022/03/23 11:58:15;;;;;;;16.60;9.17;;;21.90;24.10;;;;;;5125234;27;20449;-86
2022/03/23 12:00:45;;;;;;;15.50;9.27;;;22.20;24.30;;;;;;5082396;27;20450;-86
2022/03/23 12:03:13;;;;;;;21.93;10.43;;;22.50;24.00;;;;;;5102145;27;20462;-85
2022/03/23 12:05:50;;;;;;;12.40;8.27;;;22.80;23.70;;;;;;5113599;27;20449;-86
2022/03/23 12:08:49;;;;;;;19.93;9.70;;;23.10;22.90;;;;;;5123551;27;20466;-86
2022/03/23 12:11:51;;;;;;;13.57;9.10;;;23.30;21.40;;;;;;5106505;27;20464;-86
2022/03/23 12:14:36;;;;;;;11.63;8.70;;;23.20;21.10;;;;;;5041280;28;21181;-86
2022/03/23 12:17:17;;;;;;;12.37;8.50;;;22.80;21.00;;;;;;5105682;27;20990;-86
2022/03/23 12:20:16;;;;;;;20.90;9.13;;;22.70;20.30;;;;;;5089247;27;20465;-86
2022/03/23 12:23:09;;;;;;;11.60;8.23;;;22.50;20.10;;;;;;5100675;27;20552;-86
2022/03/23 12:25:42;;;;;;;12.20;8.50;;;22.40;19.70;;;;;;5116326;27;20452;-86
2022/03/23 12:28:26;;;;;;;9.30;7.13;;;22.80;20.10;;;;;;5130885;27;20466;-86
2022/03/23 12:31:10;;;;;;;10.90;7.47;;;23.30;20.00;;;;;;5105878;27;20457;-86
2022/03/23 12:33:58;;;;;;;17.60;8.40;;;23.50;18.70;;;;;;5112731;27;20465;-85
2022/03/23 12:36:56;;;;;;;11.63;7.27;;;23.70;18.30;;;;;;5124671;27;20465;-86
2022/03/23 12:39:36;;;;;;;9.53;6.60;;;23.60;18.70;;;;;;5084581;27;20445;-86
2022/03/23 12:42:18;;;;;;;13.57;8.27;;;23.70;18.80;;;;;;5115757;27;20442;-86
2022/03/23 12:44:48;;;;;;;12.30;8.10;;;23.50;18.00;;;;;;5112146;27;20438;-84
2022/03/23 12:47:18;;;;;;;11.27;7.63;;;23.60;18.50;;;;;;5130721;27;20466;-85
2022/03/23 12:58:11;;;;;;;10.00;7.30;;;24.20;17.40;;;;;;5115188;27;20494;-86
2022/03/23 13:00:41;;;;;;;15.53;8.00;;;24.20;17.30;;;;;;5130641;27;20790;-86
2022/03/23 13:03:50;;;;;;;12.70;8.00;;;24.30;17.20;;;;;;5099809;27;20453;-86
2022/03/23 13:06:19;;;;;;;9.00;6.93;;;24.50;16.60;;;;;;5132627;27;20441;-87
2022/03/23 13:08:50;;;;;;;10.20;7.73;;;24.50;16.40;;;;;;5105026;27;20483;-85
2022/03/23 13:11:21;;;;;;;9.47;7.50;;;24.40;17.10;;;;;;5112560;27;20454;-86
2022/03/23 13:13:51;;;;;;;11.80;8.67;;;24.30;16.70;;;;;;5112235;27;20442;-85
2022/03/23 13:16:21;;;;;;;9.33;7.43;;;24.40;16.70;;;;;;5129853;27;20487;-86
2022/03/23 13:18:49;;;;;;;10.23;8.33;;;24.50;16.30;;;;;;5102166;27;20507;-86
2022/03/23 13:21:20;;;;;;;11.50;7.20;;;24.60;16.00;;;;;;5113049;27;20502;-86